Time;durP1;ratioP1;P1;durP2;ratioP2;P2;SDS_P1;SDS_P2;PMS_P1;PMS_P2;Temp;Humidity;BMP_temperature;BMP_pressure;BME280_temperature;BME280_humidity;BME280_pressure;Samples;Min_cycle;Max_cycle;Signal;HPM_P1;HPM_P2
2023/03/13 00:01:13;;;;;;;36.83;6.45;;;8.90;99.90;;;;;;4994131;28;20038;-68
2023/03/13 00:03:38;;;;;;;31.63;6.82;;;8.90;99.90;;;;;;4977817;28;20114;-68
2023/03/13 00:06:04;;;;;;;42.10;7.43;;;8.90;99.90;;;;;;4977776;28;20599;-68
2023/03/13 00:08:30;;;;;;;44.22;7.95;;;8.90;99.90;;;;;;4993987;28;20046;-68
2023/03/13 00:10:56;;;;;;;33.25;6.07;;;8.90;99.90;;;;;;4993682;28;20121;-68
2023/03/13 00:13:21;;;;;;;37.80;7.07;;;8.80;99.90;;;;;;4993572;28;20042;-68
2023/03/13 00:15:47;;;;;;;35.53;6.45;;;8.90;99.90;;;;;;4993547;28;20053;-68
2023/03/13 00:18:13;;;;;;;37.30;7.18;;;8.80;99.90;;;;;;4993437;28;20081;-68
2023/03/13 00:20:38;;;;;;;43.63;8.43;;;8.80;99.90;;;;;;4977348;28;20070;-68
2023/03/13 00:23:04;;;;;;;37.72;7.25;;;8.80;99.90;;;;;;4993418;28;20117;-68
2023/03/13 00:25:30;;;;;;;32.15;6.40;;;8.80;99.90;;;;;;4993433;28;20088;-68
2023/03/13 00:27:55;;;;;;;34.30;6.03;;;8.80;99.90;;;;;;4993340;28;20038;-68
2023/03/13 00:30:22;;;;;;;42.22;7.28;;;8.80;99.90;;;;;;4993059;28;20101;-68
2023/03/13 00:32:47;;;;;;;43.47;7.10;;;8.80;99.90;;;;;;4993293;28;20050;-68
2023/03/13 00:35:13;;;;;;;41.78;6.68;;;8.70;99.90;;;;;;4993231;28;20053;-68
2023/03/13 00:37:39;;;;;;;34.13;6.70;;;8.80;99.90;;;;;;4993415;28;20050;-68
2023/03/13 00:40:06;;;;;;;36.53;7.63;;;8.70;99.90;;;;;;4993400;28;20031;-68
2023/03/13 00:42:32;;;;;;;32.78;6.80;;;8.80;99.90;;;;;;4993167;28;20116;-68
2023/03/13 00:44:58;;;;;;;41.80;7.70;;;8.70;99.90;;;;;;4992949;28;20400;-68
2023/03/13 00:47:23;;;;;;;33.22;6.93;;;8.70;99.90;;;;;;4993296;28;20053;-68
2023/03/13 00:49:49;;;;;;;37.92;6.45;;;8.80;99.90;;;;;;4992944;28;20405;-68
2023/03/13 00:52:14;;;;;;;40.13;7.25;;;8.70;99.90;;;;;;4992946;28;20045;-68
2023/03/13 00:54:40;;;;;;;35.40;7.03;;;8.70;99.90;;;;;;4992800;28;20045;-68
2023/03/13 00:57:06;;;;;;;38.47;7.60;;;8.70;99.90;;;;;;4992871;28;20034;-68
2023/03/13 00:59:32;;;;;;;34.00;6.43;;;8.70;99.90;;;;;;4992769;28;20049;-68
2023/03/13 01:01:57;;;;;;;34.90;6.93;;;8.70;99.90;;;;;;4992799;28;20034;-68
2023/03/13 01:04:23;;;;;;;27.70;6.22;;;8.70;99.90;;;;;;4992597;28;20042;-68
2023/03/13 01:06:48;;;;;;;35.25;6.93;;;8.60;99.90;;;;;;4993054;28;20038;-68
2023/03/13 01:09:15;;;;;;;33.33;7.07;;;8.70;99.90;;;;;;4992799;28;20495;-68
2023/03/13 01:11:43;;;;;;;33.75;6.13;;;8.70;99.90;;;;;;4992809;28;20533;-68
2023/03/13 01:14:14;;;;;;;35.63;6.72;;;8.60;99.90;;;;;;4992845;28;20380;-68
2023/03/13 01:16:40;;;;;;;36.33;6.45;;;8.70;99.90;;;;;;4992890;28;20129;-68
2023/03/13 01:19:09;;;;;;;37.13;7.65;;;8.60;99.90;;;;;;4992539;28;20529;-68
2023/03/13 01:21:35;;;;;;;33.92;6.22;;;8.60;99.90;;;;;;4992557;28;20034;-68
2023/03/13 01:24:01;;;;;;;38.83;6.90;;;8.70;99.90;;;;;;4993081;28;20042;-68
2023/03/13 01:26:27;;;;;;;33.00;6.00;;;8.60;99.90;;;;;;4992553;28;20046;-68
2023/03/13 01:28:53;;;;;;;36.08;8.25;;;8.70;99.90;;;;;;4992803;28;20049;-68
2023/03/13 01:31:29;;;;;;;32.55;6.95;;;8.70;99.90;;;;;;4992732;28;20126;-68
2023/03/13 01:33:57;;;;;;;35.63;6.57;;;8.70;99.90;;;;;;4992337;28;20141;-68
2023/03/13 01:36:23;;;;;;;31.17;6.93;;;8.80;99.90;;;;;;4992468;28;20049;-68
2023/03/13 01:38:54;;;;;;;32.58;7.38;;;8.80;99.90;;;;;;4976143;28;20492;-68
2023/03/13 01:41:21;;;;;;;38.65;6.43;;;8.80;99.90;;;;;;4992590;28;20134;-68
2023/03/13 01:43:47;;;;;;;29.00;5.40;;;8.80;99.90;;;;;;4995319;28;20041;-68
2023/03/13 01:46:17;;;;;;;32.50;6.85;;;8.80;99.90;;;;;;4996420;28;20050;-68
2023/03/13 01:49:06;;;;;;;30.25;5.90;;;8.80;99.90;;;;;;4996400;28;20046;-68
2023/03/13 01:51:46;;;;;;;30.38;6.22;;;8.80;99.90;;;;;;4996702;28;20410;-68
2023/03/13 01:54:44;;;;;;;26.42;5.93;;;8.80;99.90;;;;;;4996257;28;20450;-68
2023/03/13 01:57:28;;;;;;;35.70;6.22;;;8.80;99.90;;;;;;4996320;28;20042;-68
2023/03/13 02:00:22;;;;;;;28.83;5.72;;;8.80;99.90;;;;;;4996423;28;20038;-68
2023/03/13 02:02:52;;;;;;;32.03;6.55;;;8.80;99.90;;;;;;4992987;28;20108;-68
2023/03/13 02:05:21;;;;;;;38.47;7.68;;;8.80;99.90;;;;;;4996088;28;20042;-68
2023/03/13 02:07:53;;;;;;;29.95;6.13;;;8.80;99.90;;;;;;4997316;28;20050;-68
2023/03/13 02:10:20;;;;;;;30.52;6.70;;;8.80;99.90;;;;;;4996313;28;20038;-68
2023/03/13 02:12:47;;;;;;;32.17;6.30;;;8.80;99.90;;;;;;4995895;28;20050;-68
2023/03/13 02:15:19;;;;;;;38.80;7.50;;;8.80;99.90;;;;;;4996217;28;20038;-68
2023/03/13 02:17:46;;;;;;;34.35;6.70;;;8.70;99.90;;;;;;4995791;28;20050;-68
2023/03/13 02:20:14;;;;;;;29.88;6.78;;;8.70;99.90;;;;;;4995838;28;20034;-68
2023/03/13 02:23:02;;;;;;;29.85;7.20;;;8.70;99.90;;;;;;4995722;28;20045;-68
2023/03/13 02:25:46;;;;;;;29.13;6.65;;;8.70;99.90;;;;;;4995745;28;20050;-68
2023/03/13 02:28:14;;;;;;;21.88;5.30;;;8.70;99.90;;;;;;4995677;28;20038;-68
2023/03/13 02:30:42;;;;;;;23.95;5.57;;;8.70;99.90;;;;;;4995634;28;20100;-68
2023/03/13 02:33:10;;;;;;;23.05;5.65;;;8.70;99.90;;;;;;4995444;28;20042;-68
2023/03/13 02:35:36;;;;;;;25.73;5.93;;;8.70;99.90;;;;;;4995809;28;20069;-68
2023/03/13 02:38:05;;;;;;;20.45;5.38;;;8.70;99.90;;;;;;4995483;28;20415;-68
2023/03/13 02:40:34;;;;;;;23.27;5.85;;;8.70;99.90;;;;;;4995732;28;20057;-68
2023/03/13 02:43:04;;;;;;;26.77;5.57;;;8.70;99.90;;;;;;4995636;28;20050;-68
2023/03/13 02:45:30;;;;;;;20.02;5.53;;;8.70;99.90;;;;;;4995660;28;20483;-68
2023/03/13 02:47:55;;;;;;;16.02;4.72;;;8.70;99.90;;;;;;4995343;28;20045;-68
2023/03/13 02:50:22;;;;;;;21.42;4.88;;;8.70;99.90;;;;;;4995234;28;20046;-68
2023/03/13 02:52:53;;;;;;;14.38;4.55;;;8.70;99.90;;;;;;4995157;28;20089;-68
2023/03/13 02:55:38;;;;;;;18.23;5.10;;;8.80;99.90;;;;;;4995050;28;20046;-68
2023/03/13 02:58:04;;;;;;;12.50;4.50;;;8.80;99.90;;;;;;4995125;28;20085;-68
2023/03/13 03:00:29;;;;;;;15.02;4.38;;;8.80;99.90;;;;;;4995100;28;20073;-68
2023/03/13 03:02:55;;;;;;;16.40;4.60;;;8.80;99.90;;;;;;4978815;28;20121;-68
2023/03/13 03:05:22;;;;;;;16.15;4.22;;;8.90;99.90;;;;;;4995006;28;20038;-68
2023/03/13 03:07:48;;;;;;;18.38;4.60;;;8.80;99.90;;;;;;4978777;28;20046;-68
2023/03/13 03:10:15;;;;;;;15.60;4.63;;;8.90;99.90;;;;;;4995140;28;20038;-68
2023/03/13 03:12:40;;;;;;;15.38;3.95;;;8.90;99.90;;;;;;4994776;28;20045;-68
2023/03/13 03:15:07;;;;;;;14.57;3.95;;;8.90;99.90;;;;;;4995067;28;20034;-68
2023/03/13 03:17:32;;;;;;;11.50;3.88;;;8.90;99.90;;;;;;4994960;28;20121;-68
2023/03/13 03:19:58;;;;;;;15.55;4.22;;;9.00;99.90;;;;;;4994726;28;20129;-68
2023/03/13 03:22:23;;;;;;;10.05;3.40;;;9.00;99.90;;;;;;4996173;28;20038;-68
2023/03/13 03:24:49;;;;;;;11.35;3.47;;;9.00;99.90;;;;;;4994608;28;20109;-68
2023/03/13 03:27:14;;;;;;;11.20;4.00;;;9.10;99.90;;;;;;4994587;28;20053;-68
2023/03/13 03:29:40;;;;;;;11.00;3.83;;;9.20;99.90;;;;;;4994577;28;20042;-68
2023/03/13 03:32:06;;;;;;;9.18;3.65;;;9.20;99.90;;;;;;4994462;28;20045;-68
2023/03/13 03:34:31;;;;;;;8.65;4.07;;;9.20;99.90;;;;;;4994592;28;20049;-68
2023/03/13 03:36:57;;;;;;;12.65;4.93;;;9.20;99.90;;;;;;4994627;28;20522;-68
2023/03/13 03:39:23;;;;;;;12.40;4.32;;;9.30;99.90;;;;;;4994294;28;20085;-68
2023/03/13 03:41:49;;;;;;;12.68;4.50;;;9.20;99.90;;;;;;4994330;28;20038;-68
2023/03/13 03:44:14;;;;;;;9.52;4.18;;;9.30;99.90;;;;;;4994223;28;20034;-68
2023/03/13 03:46:40;;;;;;;11.20;4.53;;;9.30;99.90;;;;;;4994223;28;20066;-68
2023/03/13 03:49:05;;;;;;;10.07;4.70;;;9.40;99.90;;;;;;4994157;28;20042;-68
2023/03/13 03:51:31;;;;;;;11.48;4.65;;;9.40;99.90;;;;;;4994160;28;20077;-68
2023/03/13 03:53:56;;;;;;;8.52;5.13;;;9.40;99.90;;;;;;4994025;28;20125;-68
2023/03/13 03:56:22;;;;;;;9.55;5.00;;;9.50;99.90;;;;;;4994299;28;20049;-68
2023/03/13 03:58:48;;;;;;;11.88;5.30;;;9.50;99.90;;;;;;4993906;28;20565;-68
2023/03/13 04:01:13;;;;;;;10.77;5.70;;;9.50;99.90;;;;;;4994187;28;20074;-68
2023/03/13 04:03:39;;;;;;;8.75;4.95;;;9.50;99.90;;;;;;4995024;28;20097;-68
2023/03/13 04:06:05;;;;;;;10.10;4.57;;;9.60;99.90;;;;;;4993276;28;20038;-68
2023/03/13 04:08:31;;;;;;;9.07;5.57;;;9.60;99.90;;;;;;4993846;28;20093;-68
2023/03/13 04:10:59;;;;;;;7.43;4.60;;;9.70;99.90;;;;;;4993802;28;20046;-68
2023/03/13 04:13:24;;;;;;;9.45;4.60;;;9.70;99.90;;;;;;4993670;28;20058;-68
2023/03/13 04:15:50;;;;;;;7.03;4.68;;;9.80;99.90;;;;;;4994910;28;20045;-68
2023/03/13 04:18:15;;;;;;;6.20;4.18;;;9.90;99.90;;;;;;4993540;28;20483;-68
2023/03/13 04:20:41;;;;;;;5.85;4.60;;;9.90;99.90;;;;;;4993626;28;20042;-68
2023/03/13 04:23:06;;;;;;;6.90;4.45;;;10.00;99.90;;;;;;4993694;28;20065;-68
2023/03/13 04:25:32;;;;;;;8.30;4.47;;;10.00;99.90;;;;;;4993475;28;20415;-68
2023/03/13 04:27:57;;;;;;;7.40;4.60;;;10.00;99.90;;;;;;4993724;28;20042;-68
2023/03/13 04:30:23;;;;;;;8.40;4.90;;;10.10;99.90;;;;;;4993625;28;20566;-68
2023/03/13 04:32:49;;;;;;;5.93;5.30;;;10.20;99.90;;;;;;4993202;28;20126;-68
2023/03/13 04:35:15;;;;;;;9.27;5.25;;;10.20;99.90;;;;;;4993548;28;20046;-68
2023/03/13 04:37:41;;;;;;;12.52;6.03;;;10.20;99.90;;;;;;4993217;28;20388;-68
2023/03/13 04:40:08;;;;;;;8.50;5.93;;;10.20;99.90;;;;;;4993236;28;20049;-68
2023/03/13 04:42:33;;;;;;;9.05;6.50;;;10.30;99.90;;;;;;4993230;28;20578;-68
2023/03/13 04:44:59;;;;;;;10.45;6.70;;;10.40;99.90;;;;;;4993335;28;20130;-68
2023/03/13 04:47:24;;;;;;;11.23;7.63;;;10.40;99.90;;;;;;4993086;28;20459;-68
2023/03/13 04:49:50;;;;;;;14.88;8.43;;;10.50;99.90;;;;;;4993305;28;20034;-68
2023/03/13 04:52:15;;;;;;;10.63;7.72;;;10.50;99.90;;;;;;4993274;28;20057;-68
2023/03/13 04:54:41;;;;;;;11.93;8.18;;;10.50;99.90;;;;;;4992921;28;20418;-68
2023/03/13 04:57:07;;;;;;;10.57;8.57;;;10.60;99.90;;;;;;4992945;28;20045;-68
2023/03/13 04:59:32;;;;;;;17.98;9.50;;;10.60;99.90;;;;;;4992810;28;20095;-68
2023/03/13 05:01:58;;;;;;;14.07;9.43;;;10.60;99.90;;;;;;4992873;28;20407;-68
2023/03/13 05:04:23;;;;;;;15.43;9.45;;;10.60;99.90;;;;;;4992769;28;20050;-68
2023/03/13 05:06:49;;;;;;;12.00;8.95;;;10.70;99.90;;;;;;4992810;28;20101;-68
2023/03/13 05:09:14;;;;;;;11.68;8.98;;;10.70;99.90;;;;;;4992773;28;20046;-68
2023/03/13 05:11:41;;;;;;;13.57;9.13;;;10.80;99.90;;;;;;4992775;28;20135;-68
2023/03/13 05:14:09;;;;;;;16.15;9.75;;;10.80;99.90;;;;;;4976474;28;20034;-68
2023/03/13 05:16:35;;;;;;;14.73;9.30;;;10.80;99.90;;;;;;4992296;28;20081;-68
2023/03/13 05:19:01;;;;;;;13.48;8.60;;;10.90;99.90;;;;;;4992198;28;20140;-68
2023/03/13 05:21:27;;;;;;;12.75;8.32;;;11.00;99.90;;;;;;4992605;28;20034;-68
2023/03/13 05:23:52;;;;;;;12.25;8.23;;;11.00;99.90;;;;;;4992547;28;20122;-68
2023/03/13 05:26:18;;;;;;;13.20;7.60;;;11.10;99.90;;;;;;4976637;28;20117;-68
2023/03/13 05:28:43;;;;;;;14.52;8.52;;;11.00;99.90;;;;;;4994024;28;20450;-68
2023/03/13 05:31:09;;;;;;;9.38;7.45;;;11.10;99.90;;;;;;4992739;28;20045;-68
2023/03/13 05:33:34;;;;;;;12.77;6.85;;;11.00;99.90;;;;;;4993559;28;20038;-68
2023/03/13 05:36:00;;;;;;;9.43;7.30;;;11.20;99.90;;;;;;4992493;28;20070;-68
2023/03/13 05:38:25;;;;;;;9.70;6.78;;;11.20;99.90;;;;;;4992356;28;20067;-68
2023/03/13 05:40:51;;;;;;;10.65;6.53;;;11.10;99.90;;;;;;4993916;28;20038;-68
2023/03/13 05:43:16;;;;;;;12.05;6.68;;;11.20;99.90;;;;;;4992338;28;20063;-68
2023/03/13 05:45:42;;;;;;;12.57;7.70;;;11.10;99.90;;;;;;4992382;28;20034;-68
2023/03/13 05:48:08;;;;;;;9.30;6.50;;;11.10;99.90;;;;;;4992375;28;20129;-68
2023/03/13 05:50:33;;;;;;;12.82;6.13;;;11.10;99.90;;;;;;4992311;28;20057;-68
2023/03/13 05:52:59;;;;;;;7.95;5.53;;;11.20;99.90;;;;;;4992493;28;20053;-68
2023/03/13 05:55:24;;;;;;;11.57;6.00;;;11.20;99.90;;;;;;4992297;28;20396;-68
2023/03/13 05:57:50;;;;;;;10.00;5.93;;;11.20;99.90;;;;;;4992215;28;20053;-68
2023/03/13 06:00:17;;;;;;;10.77;5.47;;;11.30;99.90;;;;;;4992248;28;20042;-68
2023/03/13 06:02:43;;;;;;;11.10;5.50;;;11.20;99.90;;;;;;4992160;28;20411;-68
2023/03/13 06:05:09;;;;;;;11.63;5.30;;;11.30;99.90;;;;;;4992260;28;20164;-68
2023/03/13 06:07:35;;;;;;;9.02;4.95;;;11.30;99.90;;;;;;4992209;28;20042;-68
2023/03/13 06:10:01;;;;;;;7.47;4.75;;;11.30;99.90;;;;;;4992413;28;20049;-68
2023/03/13 06:12:26;;;;;;;9.27;4.32;;;11.40;99.90;;;;;;4993368;28;20034;-68
2023/03/13 06:14:52;;;;;;;7.15;4.75;;;11.40;99.90;;;;;;4992764;28;20383;-68
2023/03/13 06:17:17;;;;;;;11.73;5.25;;;11.40;99.90;;;;;;4992069;28;20039;-68
2023/03/13 06:19:44;;;;;;;9.20;4.30;;;11.40;99.90;;;;;;4992022;28;20038;-68
2023/03/13 06:22:10;;;;;;;9.18;4.47;;;11.50;99.90;;;;;;4993608;28;20043;-68
2023/03/13 06:24:36;;;;;;;10.25;4.50;;;11.50;99.90;;;;;;4991968;28;20455;-68
2023/03/13 06:27:01;;;;;;;10.13;5.03;;;11.50;99.90;;;;;;4992291;28;20114;-68
2023/03/13 06:29:27;;;;;;;12.25;4.35;;;11.60;99.90;;;;;;4994087;28;20593;-68
2023/03/13 06:31:52;;;;;;;14.30;4.72;;;11.60;99.90;;;;;;4995639;28;20129;-68
2023/03/13 06:34:18;;;;;;;10.27;5.03;;;11.50;99.90;;;;;;4995404;28;20121;-68
2023/03/13 06:36:44;;;;;;;10.07;4.80;;;11.60;99.90;;;;;;4995514;28;20049;-68
2023/03/13 06:39:10;;;;;;;9.68;4.90;;;11.70;99.90;;;;;;4995390;28;20050;-68
2023/03/13 06:41:36;;;;;;;9.43;5.25;;;11.70;99.90;;;;;;4995691;28;20376;-68
2023/03/13 06:44:02;;;;;;;11.95;4.60;;;11.60;99.90;;;;;;4995333;28;20037;-68
2023/03/13 06:46:29;;;;;;;12.45;4.30;;;11.60;99.90;;;;;;4995326;28;20184;-68
2023/03/13 06:48:54;;;;;;;12.73;4.57;;;11.60;99.90;;;;;;4995334;28;20054;-68
2023/03/13 06:51:21;;;;;;;10.63;4.35;;;11.70;99.90;;;;;;4995299;28;20041;-68
2023/03/13 06:53:47;;;;;;;9.82;4.10;;;11.80;99.90;;;;;;4995374;28;20407;-68
2023/03/13 06:56:13;;;;;;;13.25;3.97;;;11.80;99.90;;;;;;4995208;28;20042;-68
2023/03/13 06:58:39;;;;;;;10.93;4.15;;;11.90;99.90;;;;;;4995035;28;20411;-68
2023/03/13 07:01:09;;;;;;;11.77;3.70;;;11.90;99.90;;;;;;4995122;28;20038;-68
2023/03/13 07:03:35;;;;;;;12.82;4.20;;;11.90;99.90;;;;;;4979035;28;20042;-68
2023/03/13 07:06:01;;;;;;;15.10;4.65;;;11.80;99.90;;;;;;4995002;28;20414;-68
2023/03/13 07:08:27;;;;;;;11.25;3.42;;;12.00;99.90;;;;;;4995040;28;20042;-68
2023/03/13 07:11:01;;;;;;;12.40;4.47;;;12.00;99.90;;;;;;4979096;28;20129;-68
2023/03/13 07:13:27;;;;;;;13.45;4.18;;;12.00;99.90;;;;;;4995051;28;20113;-68
2023/03/13 07:15:52;;;;;;;12.82;4.38;;;11.80;99.90;;;;;;4994860;28;20498;-68
2023/03/13 07:18:19;;;;;;;11.88;3.83;;;11.90;99.90;;;;;;4996671;28;20043;-67
2023/03/13 07:20:50;;;;;;;14.35;4.97;;;11.80;99.90;;;;;;4994779;28;20077;-67
2023/03/13 07:23:15;;;;;;;9.25;3.83;;;11.90;99.90;;;;;;4994903;28;20034;-68
2023/03/13 07:25:41;;;;;;;11.85;3.80;;;11.90;99.90;;;;;;4994623;28;20499;-68
2023/03/13 07:28:07;;;;;;;12.38;3.78;;;11.90;99.90;;;;;;4994566;28;20042;-68
2023/03/13 07:30:32;;;;;;;15.60;3.80;;;11.90;99.90;;;;;;4994575;28;20038;-68
2023/03/13 07:32:58;;;;;;;13.68;4.10;;;11.90;99.90;;;;;;4994579;28;20034;-68
2023/03/13 07:35:23;;;;;;;15.93;4.00;;;12.00;99.90;;;;;;4994511;28;20537;-67
2023/03/13 07:37:49;;;;;;;12.32;3.30;;;12.00;99.90;;;;;;4994334;28;20050;-68
2023/03/13 07:40:14;;;;;;;10.15;3.40;;;12.00;99.90;;;;;;4993392;28;20085;-67
2023/03/13 07:42:41;;;;;;;14.82;3.70;;;11.90;99.90;;;;;;4994135;28;20431;-66
2023/03/13 07:45:07;;;;;;;9.73;3.40;;;12.00;99.90;;;;;;4994310;28;20174;-66
2023/03/13 07:47:33;;;;;;;10.70;3.40;;;12.00;99.90;;;;;;4994386;28;20045;-66
2023/03/13 07:49:59;;;;;;;10.55;3.55;;;12.00;99.90;;;;;;4994202;28;20177;-66
2023/03/13 07:52:26;;;;;;;13.52;3.72;;;12.00;99.90;;;;;;4994099;28;20129;-66
2023/03/13 07:54:52;;;;;;;14.85;3.85;;;11.90;99.90;;;;;;4977864;28;20442;-66
2023/03/13 07:57:18;;;;;;;11.57;3.67;;;11.90;99.90;;;;;;4994240;28;20541;-66
2023/03/13 07:59:43;;;;;;;9.18;2.90;;;11.90;99.90;;;;;;4994323;28;20077;-66
2023/03/13 08:02:12;;;;;;;11.52;3.00;;;11.90;99.90;;;;;;4994253;28;20042;-66
2023/03/13 08:04:38;;;;;;;9.75;3.25;;;11.90;99.90;;;;;;4993905;28;20088;-66
2023/03/13 08:07:08;;;;;;;8.80;3.05;;;11.90;99.90;;;;;;4994131;28;20042;-66
2023/03/13 08:09:34;;;;;;;8.32;3.58;;;11.90;99.90;;;;;;4993847;28;20046;-66
2023/03/13 08:11:59;;;;;;;10.00;3.13;;;11.90;99.90;;;;;;4993740;28;20045;-66
2023/03/13 08:14:25;;;;;;;9.73;3.58;;;11.80;99.90;;;;;;4993905;28;20129;-66
2023/03/13 08:16:50;;;;;;;8.98;3.22;;;11.80;99.90;;;;;;4993697;28;20047;-66
2023/03/13 08:19:16;;;;;;;10.23;3.30;;;11.80;99.90;;;;;;4993536;28;20051;-66
2023/03/13 08:21:42;;;;;;;7.20;3.58;;;11.60;99.90;;;;;;4993855;28;20054;-66
2023/03/13 08:24:10;;;;;;;7.28;2.83;;;11.70;99.90;;;;;;4993437;28;20065;-66
2023/03/13 08:26:38;;;;;;;8.20;2.83;;;11.60;99.90;;;;;;4993755;28;20101;-66
2023/03/13 08:29:07;;;;;;;8.00;2.80;;;11.60;99.90;;;;;;4993694;28;20042;-66
2023/03/13 08:31:51;;;;;;;6.07;2.42;;;11.60;99.90;;;;;;4993690;28;20050;-66
2023/03/13 08:34:17;;;;;;;9.00;2.63;;;11.80;99.90;;;;;;4993216;28;20525;-66
2023/03/13 08:36:43;;;;;;;9.68;2.22;;;11.80;99.90;;;;;;4993250;28;20038;-66
2023/03/13 08:39:15;;;;;;;8.43;2.67;;;11.70;99.90;;;;;;4977033;28;20388;-66
2023/03/13 08:41:41;;;;;;;7.40;2.55;;;11.70;99.90;;;;;;4993276;28;20035;-66
2023/03/13 08:44:12;;;;;;;6.95;2.85;;;11.80;99.90;;;;;;4993364;28;20097;-66
2023/03/13 08:46:38;;;;;;;6.47;2.75;;;11.80;99.90;;;;;;4993164;28;20108;-66
2023/03/13 08:49:05;;;;;;;7.55;2.53;;;11.80;99.90;;;;;;4993368;28;20049;-66
2023/03/13 08:51:31;;;;;;;7.45;2.70;;;11.90;99.90;;;;;;4992932;28;20399;-66
2023/03/13 08:53:56;;;;;;;5.70;2.70;;;11.70;99.90;;;;;;4992916;28;20521;-66
2023/03/13 08:56:25;;;;;;;8.60;2.80;;;11.80;99.90;;;;;;4993799;28;20042;-66
2023/03/13 08:58:56;;;;;;;6.68;2.40;;;11.90;99.90;;;;;;4992899;28;20054;-66
2023/03/13 09:01:24;;;;;;;6.25;2.53;;;12.20;99.90;;;;;;4992986;28;20038;-66
2023/03/13 09:03:50;;;;;;;7.43;2.38;;;12.30;99.90;;;;;;4994072;28;20057;-66
2023/03/13 09:06:16;;;;;;;5.55;2.10;;;12.30;99.90;;;;;;4992865;28;20487;-66
2023/03/13 09:08:42;;;;;;;7.25;2.15;;;12.40;99.90;;;;;;4994092;28;20042;-66
2023/03/13 09:11:19;;;;;;;6.20;2.20;;;12.40;99.90;;;;;;4992780;28;20446;-66
2023/03/13 09:13:48;;;;;;;6.95;2.95;;;12.40;99.90;;;;;;4992691;28;20046;-67
2023/03/13 09:16:19;;;;;;;6.82;3.05;;;12.40;99.90;;;;;;4992988;28;20046;-66
2023/03/13 09:18:47;;;;;;;6.53;2.40;;;12.40;99.90;;;;;;4992682;28;20058;-66
2023/03/13 09:21:15;;;;;;;9.55;3.03;;;12.30;99.90;;;;;;4976781;28;20439;-66
2023/03/13 09:23:41;;;;;;;9.95;3.00;;;12.30;99.90;;;;;;4992536;28;20038;-67
2023/03/13 09:26:07;;;;;;;9.48;2.60;;;12.30;99.90;;;;;;4992894;28;20030;-66
2023/03/13 09:28:32;;;;;;;6.95;2.63;;;12.30;99.90;;;;;;4992580;28;20553;-66
2023/03/13 09:31:13;;;;;;;9.27;2.33;;;12.30;99.90;;;;;;4992491;28;20073;-66
2023/03/13 09:33:39;;;;;;;5.65;2.50;;;12.20;99.90;;;;;;4992345;28;20053;-66
2023/03/13 09:36:05;;;;;;;8.90;2.75;;;12.20;99.90;;;;;;4992742;28;20112;-66
2023/03/13 09:38:31;;;;;;;10.27;3.03;;;12.20;99.90;;;;;;4993384;28;20046;-66
2023/03/13 09:41:17;;;;;;;6.68;2.10;;;12.30;99.90;;;;;;4992732;28;20035;-66
2023/03/13 09:43:59;;;;;;;12.55;2.55;;;12.20;99.90;;;;;;4992636;28;20049;-66
2023/03/13 09:46:43;;;;;;;11.63;3.03;;;12.30;99.90;;;;;;4976506;28;20212;-66
2023/03/13 09:49:15;;;;;;;7.40;2.60;;;12.30;99.90;;;;;;4992390;28;20388;-66
2023/03/13 09:51:44;;;;;;;9.80;2.40;;;12.30;99.90;;;;;;4993227;28;20057;-66
2023/03/13 09:54:32;;;;;;;7.50;2.13;;;12.40;99.90;;;;;;4992519;28;20077;-67
2023/03/13 09:57:05;;;;;;;11.48;2.25;;;12.50;99.90;;;;;;4976185;28;20585;-66
2023/03/13 09:59:31;;;;;;;;;;;12.70;99.90;;;;;;4992745;28;20419;-66
2023/03/13 10:01:59;;;;;;;6.63;2.50;;;12.90;99.90;;;;;;4992310;28;20004;-66
2023/03/13 10:04:38;;;;;;;10.63;2.75;;;12.90;99.90;;;;;;4994335;28;20077;-67
2023/03/13 10:07:09;;;;;;;9.15;2.25;;;13.70;99.90;;;;;;4996147;28;20039;-66
2023/03/13 10:09:36;;;;;;;6.50;1.90;;;13.90;99.90;;;;;;4996133;28;20138;-66
2023/03/13 10:12:22;;;;;;;10.77;2.60;;;13.80;99.90;;;;;;4996035;28;20125;-66
2023/03/13 10:15:14;;;;;;;7.70;2.25;;;13.70;99.90;;;;;;4996188;28;20113;-66
2023/03/13 10:17:40;;;;;;;9.80;2.47;;;13.50;99.90;;;;;;4996335;28;20042;-66
2023/03/13 10:20:12;;;;;;;7.50;2.38;;;13.40;99.90;;;;;;4995812;28;20046;-65
2023/03/13 10:22:38;;;;;;;10.95;2.67;;;13.30;99.90;;;;;;4995812;28;20038;-65
2023/03/13 10:25:24;;;;;;;11.07;2.13;;;13.20;99.90;;;;;;4995722;28;20042;-65
2023/03/13 10:27:50;;;;;;;10.75;2.88;;;13.20;99.90;;;;;;4995825;28;20034;-66
2023/03/13 10:30:30;;;;;;;11.43;2.40;;;13.20;99.90;;;;;;4995964;28;20137;-66
2023/03/13 10:33:19;;;;;;;10.63;2.25;;;13.20;99.90;;;;;;4995504;28;20110;-66
2023/03/13 10:35:45;;;;;;;10.20;2.53;;;13.30;99.90;;;;;;4995714;28;20053;-65
2023/03/13 10:38:20;;;;;;;14.20;3.17;;;13.20;99.90;;;;;;4995501;28;20046;-65
2023/03/13 10:41:01;;;;;;;9.05;2.15;;;13.30;99.90;;;;;;4995584;28;20046;-66
2023/03/13 10:43:29;;;;;;;10.13;2.53;;;13.40;99.90;;;;;;4995418;28;20074;-66
2023/03/13 10:45:55;;;;;;;12.10;2.20;;;13.40;99.90;;;;;;4995429;28;20116;-66
2023/03/13 10:48:35;;;;;;;15.60;2.42;;;13.40;99.90;;;;;;4995626;28;20097;-70
2023/03/13 10:51:01;;;;;;;16.45;3.47;;;13.50;99.90;;;;;;4995609;28;20046;-66
2023/03/13 10:53:30;;;;;;;13.23;2.65;;;13.50;99.90;;;;;;4995485;28;20048;-67
2023/03/13 10:56:13;;;;;;;10.88;2.92;;;13.60;99.90;;;;;;4979020;28;20459;-67
2023/03/13 10:58:45;;;;;;;13.77;3.28;;;13.60;99.90;;;;;;4995128;28;20052;-67
2023/03/13 11:01:32;;;;;;;15.45;2.75;;;13.70;99.90;;;;;;4995417;28;20042;-67
2023/03/13 11:04:00;;;;;;;13.27;3.65;;;14.10;99.90;;;;;;4995265;28;20068;-67
2023/03/13 11:06:32;;;;;;;11.25;2.10;;;14.10;99.90;;;;;;4995304;28;20098;-67
2023/03/13 11:09:16;;;;;;;11.13;2.30;;;14.20;99.90;;;;;;4995095;28;20513;-67
2023/03/13 11:11:45;;;;;;;12.63;2.50;;;14.10;99.90;;;;;;4995131;28;20075;-67
2023/03/13 11:14:16;;;;;;;14.57;2.53;;;14.10;99.90;;;;;;4994868;28;20042;-67
2023/03/13 11:16:58;;;;;;;11.32;2.28;;;14.20;99.90;;;;;;4994980;28;20078;-66
2023/03/13 11:19:57;;;;;;;8.25;2.10;;;14.20;99.90;;;;;;4994811;28;20046;-66
2023/03/13 11:22:45;;;;;;;10.35;2.22;;;14.20;99.90;;;;;;4994800;28;20092;-67
2023/03/13 11:25:34;;;;;;;11.90;2.22;;;14.10;99.90;;;;;;4994741;28;20074;-67
2023/03/13 11:28:08;;;;;;;6.75;1.90;;;14.10;99.90;;;;;;4978517;28;20038;-67
2023/03/13 11:30:37;;;;;;;8.15;1.80;;;14.10;99.90;;;;;;4994658;28;20045;-67
2023/03/13 11:33:27;;;;;;;7.88;1.92;;;14.20;99.90;;;;;;4994331;28;20492;-67
2023/03/13 11:36:17;;;;;;;7.22;1.65;;;14.20;99.90;;;;;;4994831;28;20049;-67
2023/03/13 11:38:51;;;;;;;5.43;1.40;;;14.30;99.90;;;;;;4978231;28;20578;-67
2023/03/13 11:41:34;;;;;;;4.53;1.33;;;14.40;99.90;;;;;;4994448;28;20049;-67
2023/03/13 11:44:22;;;;;;;;;;;14.60;99.90;;;;;;4994740;28;20126;-67
2023/03/13 11:47:06;;;;;;;3.85;1.10;;;14.50;99.90;;;;;;4994392;28;19922;-67
2023/03/13 11:49:53;;;;;;;7.45;1.35;;;14.50;99.90;;;;;;4994312;28;20077;-67
2023/03/13 11:52:53;;;;;;;7.55;1.45;;;14.60;99.90;;;;;;4994199;28;20053;-67
2023/03/13 11:55:52;;;;;;;4.93;1.40;;;14.50;99.90;;;;;;4994148;28;20057;-67
2023/03/13 11:58:27;;;;;;;6.28;1.10;;;14.50;99.90;;;;;;4977993;28;20400;-67
2023/03/13 12:01:10;;;;;;;6.90;1.45;;;14.60;99.90;;;;;;4994028;28;20049;-67
2023/03/13 12:03:56;;;;;;;6.22;1.60;;;14.70;99.90;;;;;;4994306;28;20038;-67
2023/03/13 12:06:45;;;;;;;6.88;1.73;;;14.80;99.90;;;;;;4994176;28;20039;-67
2023/03/13 12:09:15;;;;;;;7.20;1.30;;;14.90;99.90;;;;;;4993924;28;20124;-67
2023/03/13 12:12:03;;;;;;;6.88;1.60;;;14.90;99.90;;;;;;4993898;28;20050;-67
2023/03/13 12:14:47;;;;;;;7.03;1.42;;;14.90;99.90;;;;;;4994341;28;20042;-67
2023/03/13 12:17:33;;;;;;;5.30;1.67;;;14.90;99.90;;;;;;4994064;28;20078;-67
2023/03/13 12:20:15;;;;;;;11.60;1.70;;;14.90;99.90;;;;;;4993994;28;20039;-67
2023/03/13 12:22:50;;;;;;;7.72;2.40;;;14.90;99.90;;;;;;4993929;28;20046;-67
2023/03/13 12:25:22;;;;;;;9.40;1.88;;;14.80;99.90;;;;;;4993574;28;20034;-67
2023/03/13 12:28:09;;;;;;;10.82;2.00;;;14.80;99.90;;;;;;4993079;28;20038;-67
2023/03/13 12:30:42;;;;;;;5.90;1.50;;;14.90;99.90;;;;;;4993805;28;20074;-67
2023/03/13 12:33:39;;;;;;;7.22;1.73;;;15.20;99.90;;;;;;4993235;28;20057;-67
2023/03/13 12:36:29;;;;;;;3.83;1.25;;;15.30;99.90;;;;;;4993425;28;20046;-67
2023/03/13 12:38:59;;;;;;;6.28;1.40;;;15.70;99.90;;;;;;4993323;28;20050;-67
2023/03/13 12:41:34;;;;;;;9.32;2.08;;;16.10;99.90;;;;;;4993487;28;20085;-66
2023/03/13 12:44:00;;;;;;;8.05;1.58;;;16.30;99.90;;;;;;4977381;28;20046;-68
2023/03/13 12:46:44;;;;;;;18.42;2.40;;;16.50;99.90;;;;;;4993226;28;20053;-67
2023/03/13 12:49:33;;;;;;;9.90;2.30;;;16.30;99.90;;;;;;4993223;28;20125;-67
2023/03/13 12:52:40;;;;;;;14.93;2.65;;;16.00;99.90;;;;;;4993948;28;20100;-67
2023/03/13 12:55:22;;;;;;;12.63;2.50;;;15.70;99.90;;;;;;4988225;28;20050;-67
2023/03/13 12:58:00;;;;;;;14.38;2.92;;;15.40;99.90;;;;;;4993112;28;20046;-67
2023/03/13 13:00:28;;;;;;;12.18;3.22;;;15.30;99.90;;;;;;4992940;28;20046;-67